sensor_id;sensor_type;location;lat;lon;timestamp;P1;durP1;ratioP1;P2;durP2;ratioP2
38427;SDS011;24211;49.980;19.776;2023-01-13T00:00:23;3.20;;;1.52;;
38427;SDS011;24211;49.980;19.776;2023-01-13T00:03:10;3.47;;;1.30;;
38427;SDS011;24211;49.980;19.776;2023-01-13T00:09:03;3.63;;;1.30;;
38427;SDS011;24211;49.980;19.776;2023-01-13T00:11:31;3.78;;;1.25;;
38427;SDS011;24211;49.980;19.776;2023-01-13T00:14:01;3.72;;;1.35;;
38427;SDS011;24211;49.980;19.776;2023-01-13T00:16:29;4.80;;;1.30;;
38427;SDS011;24211;49.980;19.776;2023-01-13T00:18:56;4.30;;;1.33;;
38427;SDS011;24211;49.980;19.776;2023-01-13T00:21:23;3.90;;;1.23;;
38427;SDS011;24211;49.980;19.776;2023-01-13T00:23:51;2.90;;;1.20;;
38427;SDS011;24211;49.980;19.776;2023-01-13T00:26:24;3.50;;;1.40;;
38427;SDS011;24211;49.980;19.776;2023-01-13T00:28:57;3.22;;;1.30;;
38427;SDS011;24211;49.980;19.776;2023-01-13T00:31:26;3.55;;;1.10;;
38427;SDS011;24211;49.980;19.776;2023-01-13T00:33:55;2.85;;;1.20;;
38427;SDS011;24211;49.980;19.776;2023-01-13T00:36:24;3.00;;;1.20;;
38427;SDS011;24211;49.980;19.776;2023-01-13T00:38:52;2.92;;;1.20;;
38427;SDS011;24211;49.980;19.776;2023-01-13T00:41:20;3.15;;;1.20;;
38427;SDS011;24211;49.980;19.776;2023-01-13T00:43:49;3.83;;;1.50;;
38427;SDS011;24211;49.980;19.776;2023-01-13T00:46:17;4.18;;;1.40;;
38427;SDS011;24211;49.980;19.776;2023-01-13T00:48:46;2.47;;;1.15;;
38427;SDS011;24211;49.980;19.776;2023-01-13T00:51:16;2.92;;;1.25;;
38427;SDS011;24211;49.980;19.776;2023-01-13T00:53:47;3.08;;;1.20;;
38427;SDS011;24211;49.980;19.776;2023-01-13T00:56:18;3.15;;;1.25;;
38427;SDS011;24211;49.980;19.776;2023-01-13T00:59:05;3.25;;;1.30;;
38427;SDS011;24211;49.980;19.776;2023-01-13T01:01:36;3.50;;;1.10;;
38427;SDS011;24211;49.980;19.776;2023-01-13T01:04:03;3.35;;;1.00;;
38427;SDS011;24211;49.980;19.776;2023-01-13T01:06:32;2.72;;;1.20;;
38427;SDS011;24211;49.980;19.776;2023-01-13T01:08:59;4.25;;;1.20;;
38427;SDS011;24211;49.980;19.776;2023-01-13T01:11:28;2.78;;;1.10;;
38427;SDS011;24211;49.980;19.776;2023-01-13T01:13:59;2.90;;;1.15;;
38427;SDS011;24211;49.980;19.776;2023-01-13T01:16:29;3.38;;;1.30;;
38427;SDS011;24211;49.980;19.776;2023-01-13T01:18:58;2.58;;;1.13;;
38427;SDS011;24211;49.980;19.776;2023-01-13T01:21:27;3.38;;;1.10;;
38427;SDS011;24211;49.980;19.776;2023-01-13T01:23:56;2.53;;;1.10;;
38427;SDS011;24211;49.980;19.776;2023-01-13T01:26:27;2.57;;;1.17;;
38427;SDS011;24211;49.980;19.776;2023-01-13T01:28:56;2.80;;;1.10;;
38427;SDS011;24211;49.980;19.776;2023-01-13T01:31:25;3.47;;;1.02;;
38427;SDS011;24211;49.980;19.776;2023-01-13T01:33:57;3.63;;;1.00;;
38427;SDS011;24211;49.980;19.776;2023-01-13T01:36:27;3.53;;;1.20;;
38427;SDS011;24211;49.980;19.776;2023-01-13T01:38:56;2.67;;;1.00;;
38427;SDS011;24211;49.980;19.776;2023-01-13T01:41:28;2.88;;;1.10;;
38427;SDS011;24211;49.980;19.776;2023-01-13T01:43:59;2.33;;;0.90;;
38427;SDS011;24211;49.980;19.776;2023-01-13T01:46:37;3.05;;;0.90;;
38427;SDS011;24211;49.980;19.776;2023-01-13T01:49:12;2.85;;;1.10;;
38427;SDS011;24211;49.980;19.776;2023-01-13T01:52:08;3.40;;;1.00;;
38427;SDS011;24211;49.980;19.776;2023-01-13T01:54:45;1.77;;;0.80;;
38427;SDS011;24211;49.980;19.776;2023-01-13T01:57:21;4.05;;;1.00;;
38427;SDS011;24211;49.980;19.776;2023-01-13T01:59:54;2.85;;;1.15;;
38427;SDS011;24211;49.980;19.776;2023-01-13T02:02:24;2.53;;;0.98;;
38427;SDS011;24211;49.980;19.776;2023-01-13T02:04:51;1.95;;;0.90;;
38427;SDS011;24211;49.980;19.776;2023-01-13T02:07:23;4.95;;;1.00;;
38427;SDS011;24211;49.980;19.776;2023-01-13T02:09:57;2.45;;;1.00;;
38427;SDS011;24211;49.980;19.776;2023-01-13T02:12:33;2.40;;;1.00;;
38427;SDS011;24211;49.980;19.776;2023-01-13T02:20:57;3.22;;;1.02;;
38427;SDS011;24211;49.980;19.776;2023-01-13T02:30:07;2.30;;;0.90;;
38427;SDS011;24211;49.980;19.776;2023-01-13T02:35:56;2.78;;;1.05;;
38427;SDS011;24211;49.980;19.776;2023-01-13T02:39:03;2.95;;;1.10;;
38427;SDS011;24211;49.980;19.776;2023-01-13T02:45:06;3.03;;;1.20;;
38427;SDS011;24211;49.980;19.776;2023-01-13T02:47:45;5.72;;;1.60;;
38427;SDS011;24211;49.980;19.776;2023-01-13T02:50:19;4.35;;;1.15;;
38427;SDS011;24211;49.980;19.776;2023-01-13T02:52:56;3.05;;;1.10;;
38427;SDS011;24211;49.980;19.776;2023-01-13T02:55:30;4.53;;;0.90;;
38427;SDS011;24211;49.980;19.776;2023-01-13T02:58:03;3.53;;;1.20;;
38427;SDS011;24211;49.980;19.776;2023-01-13T03:00:37;3.42;;;1.38;;
38427;SDS011;24211;49.980;19.776;2023-01-13T03:03:05;2.67;;;1.08;;
38427;SDS011;24211;49.980;19.776;2023-01-13T03:05:32;4.38;;;1.10;;
38427;SDS011;24211;49.980;19.776;2023-01-13T03:16:48;2.35;;;1.00;;
38427;SDS011;24211;49.980;19.776;2023-01-13T03:19:41;3.97;;;1.08;;
38427;SDS011;24211;49.980;19.776;2023-01-13T03:25:24;3.78;;;1.20;;
38427;SDS011;24211;49.980;19.776;2023-01-13T03:30:33;5.40;;;1.90;;
38427;SDS011;24211;49.980;19.776;2023-01-13T03:33:10;4.25;;;1.70;;
38427;SDS011;24211;49.980;19.776;2023-01-13T03:35:46;4.63;;;1.75;;
38427;SDS011;24211;49.980;19.776;2023-01-13T03:41:04;4.63;;;1.65;;
38427;SDS011;24211;49.980;19.776;2023-01-13T03:43:42;3.00;;;1.25;;
38427;SDS011;24211;49.980;19.776;2023-01-13T03:49:40;3.63;;;1.48;;
38427;SDS011;24211;49.980;19.776;2023-01-13T03:52:21;3.47;;;1.33;;
38427;SDS011;24211;49.980;19.776;2023-01-13T03:55:00;4.78;;;1.30;;
38427;SDS011;24211;49.980;19.776;2023-01-13T03:57:37;4.00;;;1.35;;
38427;SDS011;24211;49.980;19.776;2023-01-13T04:00:12;4.35;;;1.30;;
38427;SDS011;24211;49.980;19.776;2023-01-13T04:02:44;3.42;;;1.40;;
38427;SDS011;24211;49.980;19.776;2023-01-13T04:05:19;3.05;;;1.23;;
38427;SDS011;24211;49.980;19.776;2023-01-13T04:07:48;3.88;;;1.25;;
38427;SDS011;24211;49.980;19.776;2023-01-13T04:10:49;3.58;;;1.27;;
38427;SDS011;24211;49.980;19.776;2023-01-13T04:13:33;2.67;;;1.27;;
38427;SDS011;24211;49.980;19.776;2023-01-13T04:16:05;4.07;;;1.40;;
38427;SDS011;24211;49.980;19.776;2023-01-13T04:18:36;2.53;;;1.10;;
38427;SDS011;24211;49.980;19.776;2023-01-13T04:21:05;4.43;;;1.33;;
38427;SDS011;24211;49.980;19.776;2023-01-13T04:23:33;3.15;;;1.30;;
38427;SDS011;24211;49.980;19.776;2023-01-13T04:26:00;4.28;;;1.50;;
38427;SDS011;24211;49.980;19.776;2023-01-13T04:28:28;2.85;;;1.30;;
38427;SDS011;24211;49.980;19.776;2023-01-13T04:30:54;3.47;;;1.30;;
38427;SDS011;24211;49.980;19.776;2023-01-13T04:33:22;3.28;;;1.00;;
38427;SDS011;24211;49.980;19.776;2023-01-13T04:35:49;3.38;;;1.25;;
38427;SDS011;24211;49.980;19.776;2023-01-13T04:38:18;3.85;;;1.50;;
38427;SDS011;24211;49.980;19.776;2023-01-13T04:40:47;2.85;;;1.30;;
38427;SDS011;24211;49.980;19.776;2023-01-13T04:43:14;3.28;;;1.30;;
38427;SDS011;24211;49.980;19.776;2023-01-13T04:45:42;3.97;;;1.42;;
38427;SDS011;24211;49.980;19.776;2023-01-13T04:48:09;4.35;;;1.45;;
38427;SDS011;24211;49.980;19.776;2023-01-13T04:50:37;5.85;;;1.30;;
38427;SDS011;24211;49.980;19.776;2023-01-13T04:53:05;5.70;;;1.23;;
38427;SDS011;24211;49.980;19.776;2023-01-13T04:55:32;4.15;;;1.50;;
38427;SDS011;24211;49.980;19.776;2023-01-13T04:58:03;3.30;;;1.42;;
38427;SDS011;24211;49.980;19.776;2023-01-13T05:00:32;2.78;;;1.13;;
38427;SDS011;24211;49.980;19.776;2023-01-13T05:03:01;3.78;;;1.40;;
38427;SDS011;24211;49.980;19.776;2023-01-13T05:05:29;3.83;;;1.30;;
38427;SDS011;24211;49.980;19.776;2023-01-13T05:07:57;3.15;;;1.20;;
38427;SDS011;24211;49.980;19.776;2023-01-13T05:10:25;2.80;;;1.20;;
38427;SDS011;24211;49.980;19.776;2023-01-13T05:12:53;2.15;;;1.00;;
38427;SDS011;24211;49.980;19.776;2023-01-13T05:15:39;3.03;;;1.17;;
38427;SDS011;24211;49.980;19.776;2023-01-13T05:18:26;3.88;;;1.20;;
38427;SDS011;24211;49.980;19.776;2023-01-13T05:20:56;3.58;;;1.38;;
38427;SDS011;24211;49.980;19.776;2023-01-13T05:23:23;3.05;;;1.00;;
38427;SDS011;24211;49.980;19.776;2023-01-13T05:26:09;2.78;;;1.30;;
38427;SDS011;24211;49.980;19.776;2023-01-13T05:28:37;3.40;;;1.30;;
38427;SDS011;24211;49.980;19.776;2023-01-13T05:31:04;2.92;;;1.20;;
38427;SDS011;24211;49.980;19.776;2023-01-13T05:33:31;3.53;;;1.25;;
38427;SDS011;24211;49.980;19.776;2023-01-13T05:36:01;4.20;;;1.40;;
38427;SDS011;24211;49.980;19.776;2023-01-13T05:38:29;3.63;;;1.10;;
38427;SDS011;24211;49.980;19.776;2023-01-13T05:40:57;3.35;;;1.05;;
38427;SDS011;24211;49.980;19.776;2023-01-13T05:43:45;2.10;;;1.00;;
38427;SDS011;24211;49.980;19.776;2023-01-13T05:46:12;2.83;;;1.20;;
38427;SDS011;24211;49.980;19.776;2023-01-13T05:48:41;3.50;;;1.30;;
38427;SDS011;24211;49.980;19.776;2023-01-13T05:51:09;2.95;;;1.10;;
38427;SDS011;24211;49.980;19.776;2023-01-13T05:53:38;2.65;;;1.10;;
38427;SDS011;24211;49.980;19.776;2023-01-13T05:56:06;4.05;;;1.23;;
38427;SDS011;24211;49.980;19.776;2023-01-13T05:58:35;3.40;;;1.33;;
38427;SDS011;24211;49.980;19.776;2023-01-13T06:01:03;3.17;;;1.40;;
38427;SDS011;24211;49.980;19.776;2023-01-13T06:03:33;3.53;;;1.50;;
38427;SDS011;24211;49.980;19.776;2023-01-13T06:06:02;3.78;;;1.38;;
38427;SDS011;24211;49.980;19.776;2023-01-13T06:08:30;4.95;;;1.52;;
38427;SDS011;24211;49.980;19.776;2023-01-13T06:10:58;3.70;;;1.40;;
38427;SDS011;24211;49.980;19.776;2023-01-13T06:13:25;4.65;;;1.65;;
38427;SDS011;24211;49.980;19.776;2023-01-13T06:15:56;4.53;;;1.67;;
38427;SDS011;24211;49.980;19.776;2023-01-13T06:18:25;4.25;;;1.50;;
38427;SDS011;24211;49.980;19.776;2023-01-13T06:20:53;3.60;;;1.67;;
38427;SDS011;24211;49.980;19.776;2023-01-13T06:23:20;3.78;;;1.20;;
38427;SDS011;24211;49.980;19.776;2023-01-13T06:25:55;4.05;;;1.70;;
38427;SDS011;24211;49.980;19.776;2023-01-13T06:28:39;4.07;;;1.40;;
38427;SDS011;24211;49.980;19.776;2023-01-13T06:31:06;3.40;;;1.30;;
38427;SDS011;24211;49.980;19.776;2023-01-13T06:33:36;3.67;;;1.38;;
38427;SDS011;24211;49.980;19.776;2023-01-13T06:36:14;3.97;;;1.35;;
38427;SDS011;24211;49.980;19.776;2023-01-13T06:38:49;5.32;;;1.55;;
38427;SDS011;24211;49.980;19.776;2023-01-13T06:41:22;4.13;;;1.58;;
38427;SDS011;24211;49.980;19.776;2023-01-13T06:44:09;5.13;;;1.75;;
38427;SDS011;24211;49.980;19.776;2023-01-13T06:46:36;3.55;;;1.77;;
38427;SDS011;24211;49.980;19.776;2023-01-13T06:49:03;4.30;;;1.50;;
38427;SDS011;24211;49.980;19.776;2023-01-13T06:51:30;3.88;;;1.52;;
38427;SDS011;24211;49.980;19.776;2023-01-13T06:53:58;4.70;;;1.75;;
38427;SDS011;24211;49.980;19.776;2023-01-13T06:56:25;5.07;;;1.50;;
38427;SDS011;24211;49.980;19.776;2023-01-13T06:58:52;3.50;;;1.40;;
38427;SDS011;24211;49.980;19.776;2023-01-13T07:01:19;3.67;;;1.45;;
38427;SDS011;24211;49.980;19.776;2023-01-13T07:03:47;3.28;;;1.50;;
38427;SDS011;24211;49.980;19.776;2023-01-13T07:06:14;4.97;;;1.90;;
38427;SDS011;24211;49.980;19.776;2023-01-13T07:08:41;3.85;;;1.60;;
38427;SDS011;24211;49.980;19.776;2023-01-13T07:11:08;6.25;;;2.08;;
38427;SDS011;24211;49.980;19.776;2023-01-13T07:13:35;5.72;;;1.75;;
38427;SDS011;24211;49.980;19.776;2023-01-13T07:16:22;4.60;;;1.65;;
38427;SDS011;24211;49.980;19.776;2023-01-13T07:18:50;5.50;;;1.90;;
38427;SDS011;24211;49.980;19.776;2023-01-13T07:21:17;5.03;;;2.08;;
38427;SDS011;24211;49.980;19.776;2023-01-13T07:23:46;4.35;;;1.63;;
38427;SDS011;24211;49.980;19.776;2023-01-13T07:26:14;6.15;;;1.92;;
38427;SDS011;24211;49.980;19.776;2023-01-13T07:28:41;5.90;;;1.90;;
38427;SDS011;24211;49.980;19.776;2023-01-13T07:31:13;4.40;;;1.70;;
38427;SDS011;24211;49.980;19.776;2023-01-13T07:33:44;5.45;;;1.58;;
38427;SDS011;24211;49.980;19.776;2023-01-13T07:36:12;6.00;;;1.77;;
38427;SDS011;24211;49.980;19.776;2023-01-13T07:38:40;4.75;;;2.00;;
38427;SDS011;24211;49.980;19.776;2023-01-13T07:41:13;4.45;;;2.00;;
38427;SDS011;24211;49.980;19.776;2023-01-13T07:43:59;4.85;;;1.70;;
38427;SDS011;24211;49.980;19.776;2023-01-13T07:46:30;4.60;;;1.70;;
38427;SDS011;24211;49.980;19.776;2023-01-13T07:48:58;6.78;;;2.90;;
38427;SDS011;24211;49.980;19.776;2023-01-13T07:51:25;8.77;;;3.35;;
38427;SDS011;24211;49.980;19.776;2023-01-13T07:53:53;5.93;;;2.70;;
38427;SDS011;24211;49.980;19.776;2023-01-13T07:56:20;6.03;;;2.50;;
38427;SDS011;24211;49.980;19.776;2023-01-13T07:58:47;7.05;;;2.40;;
38427;SDS011;24211;49.980;19.776;2023-01-13T08:01:16;5.20;;;2.30;;
38427;SDS011;24211;49.980;19.776;2023-01-13T08:03:45;6.30;;;2.50;;
38427;SDS011;24211;49.980;19.776;2023-01-13T08:06:12;5.47;;;2.88;;
38427;SDS011;24211;49.980;19.776;2023-01-13T08:08:40;6.70;;;2.83;;
38427;SDS011;24211;49.980;19.776;2023-01-13T08:11:07;6.28;;;2.97;;
38427;SDS011;24211;49.980;19.776;2023-01-13T08:13:34;4.90;;;2.33;;
38427;SDS011;24211;49.980;19.776;2023-01-13T08:16:06;4.75;;;2.00;;
38427;SDS011;24211;49.980;19.776;2023-01-13T08:18:36;5.75;;;2.10;;
38427;SDS011;24211;49.980;19.776;2023-01-13T08:21:05;6.70;;;1.73;;
38427;SDS011;24211;49.980;19.776;2023-01-13T08:23:39;6.03;;;2.28;;
38427;SDS011;24211;49.980;19.776;2023-01-13T08:26:09;6.35;;;2.90;;
38427;SDS011;24211;49.980;19.776;2023-01-13T08:28:43;5.15;;;2.40;;
38427;SDS011;24211;49.980;19.776;2023-01-13T08:31:11;5.13;;;2.45;;
38427;SDS011;24211;49.980;19.776;2023-01-13T08:33:42;6.38;;;2.90;;
38427;SDS011;24211;49.980;19.776;2023-01-13T08:36:10;5.88;;;2.78;;
38427;SDS011;24211;49.980;19.776;2023-01-13T08:38:40;6.85;;;2.90;;
38427;SDS011;24211;49.980;19.776;2023-01-13T08:41:08;6.38;;;3.05;;
38427;SDS011;24211;49.980;19.776;2023-01-13T08:44:02;9.05;;;3.63;;
38427;SDS011;24211;49.980;19.776;2023-01-13T08:46:31;9.68;;;3.78;;
38427;SDS011;24211;49.980;19.776;2023-01-13T08:48:59;11.57;;;4.65;;
38427;SDS011;24211;49.980;19.776;2023-01-13T08:51:26;14.63;;;5.38;;
38427;SDS011;24211;49.980;19.776;2023-01-13T08:53:53;13.00;;;5.20;;
38427;SDS011;24211;49.980;19.776;2023-01-13T08:56:20;11.52;;;5.40;;
38427;SDS011;24211;49.980;19.776;2023-01-13T08:58:48;9.93;;;5.18;;
38427;SDS011;24211;49.980;19.776;2023-01-13T09:01:17;9.93;;;5.38;;
38427;SDS011;24211;49.980;19.776;2023-01-13T09:03:48;12.05;;;5.80;;
38427;SDS011;24211;49.980;19.776;2023-01-13T09:06:16;9.35;;;4.80;;
38427;SDS011;24211;49.980;19.776;2023-01-13T09:08:44;8.52;;;3.58;;
38427;SDS011;24211;49.980;19.776;2023-01-13T09:11:24;8.13;;;4.20;;
38427;SDS011;24211;49.980;19.776;2023-01-13T09:14:22;9.63;;;4.53;;
38427;SDS011;24211;49.980;19.776;2023-01-13T09:16:51;12.23;;;6.57;;
38427;SDS011;24211;49.980;19.776;2023-01-13T09:19:19;8.73;;;4.80;;
38427;SDS011;24211;49.980;19.776;2023-01-13T09:21:46;7.85;;;3.28;;
38427;SDS011;24211;49.980;19.776;2023-01-13T09:24:14;7.65;;;3.80;;
38427;SDS011;24211;49.980;19.776;2023-01-13T09:26:41;8.88;;;3.80;;
38427;SDS011;24211;49.980;19.776;2023-01-13T09:29:08;8.77;;;4.55;;
38427;SDS011;24211;49.980;19.776;2023-01-13T09:31:35;6.78;;;3.58;;
38427;SDS011;24211;49.980;19.776;2023-01-13T09:34:03;6.97;;;2.92;;
38427;SDS011;24211;49.980;19.776;2023-01-13T09:36:51;6.18;;;2.95;;
38427;SDS011;24211;49.980;19.776;2023-01-13T09:39:19;6.03;;;2.63;;
38427;SDS011;24211;49.980;19.776;2023-01-13T09:41:52;6.28;;;2.50;;
38427;SDS011;24211;49.980;19.776;2023-01-13T09:44:45;6.63;;;2.20;;
38427;SDS011;24211;49.980;19.776;2023-01-13T09:52:41;4.63;;;1.80;;
38427;SDS011;24211;49.980;19.776;2023-01-13T09:55:22;4.85;;;1.58;;
38427;SDS011;24211;49.980;19.776;2023-01-13T09:58:13;3.88;;;1.67;;
38427;SDS011;24211;49.980;19.776;2023-01-13T10:00:45;5.75;;;1.77;;
38427;SDS011;24211;49.980;19.776;2023-01-13T10:03:24;3.92;;;1.70;;
38427;SDS011;24211;49.980;19.776;2023-01-13T10:05:56;3.95;;;1.65;;
38427;SDS011;24211;49.980;19.776;2023-01-13T10:08:43;4.63;;;1.90;;
38427;SDS011;24211;49.980;19.776;2023-01-13T10:11:17;2.97;;;1.50;;
38427;SDS011;24211;49.980;19.776;2023-01-13T10:22:45;6.03;;;1.88;;
38427;SDS011;24211;49.980;19.776;2023-01-13T10:28:36;4.07;;;1.77;;
38427;SDS011;24211;49.980;19.776;2023-01-13T10:31:08;4.95;;;1.58;;
38427;SDS011;24211;49.980;19.776;2023-01-13T10:33:37;3.20;;;1.70;;
38427;SDS011;24211;49.980;19.776;2023-01-13T10:38:45;4.30;;;1.52;;
38427;SDS011;24211;49.980;19.776;2023-01-13T10:43:44;2.70;;;1.40;;
38427;SDS011;24211;49.980;19.776;2023-01-13T10:46:52;3.50;;;1.40;;
38427;SDS011;24211;49.980;19.776;2023-01-13T10:49:33;4.53;;;1.48;;
38427;SDS011;24211;49.980;19.776;2023-01-13T10:52:22;3.20;;;1.60;;
38427;SDS011;24211;49.980;19.776;2023-01-13T10:54:53;5.97;;;2.75;;
38427;SDS011;24211;49.980;19.776;2023-01-13T10:57:22;6.75;;;3.33;;
38427;SDS011;24211;49.980;19.776;2023-01-13T10:59:53;5.60;;;2.83;;
38427;SDS011;24211;49.980;19.776;2023-01-13T11:02:28;4.30;;;2.50;;
38427;SDS011;24211;49.980;19.776;2023-01-13T11:05:01;5.07;;;2.50;;
38427;SDS011;24211;49.980;19.776;2023-01-13T11:07:48;5.75;;;2.25;;
38427;SDS011;24211;49.980;19.776;2023-01-13T11:10:21;4.32;;;2.38;;
38427;SDS011;24211;49.980;19.776;2023-01-13T11:18:49;3.97;;;2.22;;
38427;SDS011;24211;49.980;19.776;2023-01-13T11:21:51;4.80;;;2.40;;
38427;SDS011;24211;49.980;19.776;2023-01-13T11:24:33;5.72;;;2.60;;
38427;SDS011;24211;49.980;19.776;2023-01-13T11:35:39;3.95;;;1.20;;
38427;SDS011;24211;49.980;19.776;2023-01-13T11:38:19;3.63;;;1.10;;
38427;SDS011;24211;49.980;19.776;2023-01-13T11:44:40;3.35;;;1.30;;
38427;SDS011;24211;49.980;19.776;2023-01-13T11:47:15;3.22;;;0.90;;
38427;SDS011;24211;49.980;19.776;2023-01-13T11:49:49;3.55;;;1.30;;
38427;SDS011;24211;49.980;19.776;2023-01-13T11:55:44;4.32;;;1.75;;
38427;SDS011;24211;49.980;19.776;2023-01-13T12:01:23;4.97;;;1.85;;
38427;SDS011;24211;49.980;19.776;2023-01-13T12:04:23;4.25;;;1.50;;
38427;SDS011;24211;49.980;19.776;2023-01-13T12:07:12;3.83;;;1.40;;
38427;SDS011;24211;49.980;19.776;2023-01-13T12:12:50;2.83;;;1.13;;
38427;SDS011;24211;49.980;19.776;2023-01-13T12:18:34;3.80;;;1.38;;
38427;SDS011;24211;49.980;19.776;2023-01-13T12:21:22;3.92;;;1.40;;
38427;SDS011;24211;49.980;19.776;2023-01-13T12:26:50;3.95;;;1.33;;
38427;SDS011;24211;49.980;19.776;2023-01-13T12:29:32;4.10;;;1.92;;
38427;SDS011;24211;49.980;19.776;2023-01-13T12:32:03;6.80;;;2.78;;
38427;SDS011;24211;49.980;19.776;2023-01-13T12:34:52;12.40;;;6.45;;
38427;SDS011;24211;49.980;19.776;2023-01-13T12:38:10;10.13;;;5.35;;
38427;SDS011;24211;49.980;19.776;2023-01-13T12:41:09;11.55;;;5.55;;
38427;SDS011;24211;49.980;19.776;2023-01-13T12:43:46;8.93;;;4.20;;
38427;SDS011;24211;49.980;19.776;2023-01-13T12:46:34;7.22;;;3.67;;
38427;SDS011;24211;49.980;19.776;2023-01-13T12:49:31;9.23;;;3.03;;
38427;SDS011;24211;49.980;19.776;2023-01-13T12:57:18;5.13;;;2.00;;
38427;SDS011;24211;49.980;19.776;2023-01-13T13:00:12;4.75;;;1.67;;
38427;SDS011;24211;49.980;19.776;2023-01-13T13:02:41;4.45;;;1.73;;
38427;SDS011;24211;49.980;19.776;2023-01-13T13:09:17;3.67;;;1.25;;
38427;SDS011;24211;49.980;19.776;2023-01-13T13:11:44;3.25;;;1.30;;
38427;SDS011;24211;49.980;19.776;2023-01-13T13:17:02;3.55;;;1.38;;
38427;SDS011;24211;49.980;19.776;2023-01-13T13:19:57;3.80;;;1.38;;
38427;SDS011;24211;49.980;19.776;2023-01-13T13:27:22;4.65;;;1.45;;
38427;SDS011;24211;49.980;19.776;2023-01-13T13:29:58;3.47;;;1.30;;
38427;SDS011;24211;49.980;19.776;2023-01-13T13:32:32;5.18;;;1.70;;
38427;SDS011;24211;49.980;19.776;2023-01-13T13:41:26;3.95;;;1.60;;
38427;SDS011;24211;49.980;19.776;2023-01-13T13:44:13;4.22;;;1.42;;
38427;SDS011;24211;49.980;19.776;2023-01-13T13:47:08;5.75;;;1.40;;
38427;SDS011;24211;49.980;19.776;2023-01-13T13:49:40;4.38;;;1.40;;
38427;SDS011;24211;49.980;19.776;2023-01-13T13:55:06;6.70;;;1.80;;
38427;SDS011;24211;49.980;19.776;2023-01-13T13:57:45;7.20;;;2.90;;
38427;SDS011;24211;49.980;19.776;2023-01-13T14:00:24;8.88;;;3.47;;
38427;SDS011;24211;49.980;19.776;2023-01-13T14:03:00;13.40;;;4.78;;
38427;SDS011;24211;49.980;19.776;2023-01-13T14:05:33;11.55;;;7.55;;
38427;SDS011;24211;49.980;19.776;2023-01-13T14:10:42;12.98;;;8.32;;
38427;SDS011;24211;49.980;19.776;2023-01-13T14:13:18;11.25;;;6.93;;
38427;SDS011;24211;49.980;19.776;2023-01-13T14:15:55;11.02;;;6.53;;
38427;SDS011;24211;49.980;19.776;2023-01-13T14:18:31;9.18;;;5.40;;
38427;SDS011;24211;49.980;19.776;2023-01-13T14:23:58;27.23;;;10.20;;
38427;SDS011;24211;49.980;19.776;2023-01-13T14:26:36;306.25;;;103.03;;
38427;SDS011;24211;49.980;19.776;2023-01-13T14:29:03;240.52;;;89.43;;
38427;SDS011;24211;49.980;19.776;2023-01-13T14:31:31;222.80;;;83.97;;
38427;SDS011;24211;49.980;19.776;2023-01-13T14:34:01;174.13;;;69.10;;
38427;SDS011;24211;49.980;19.776;2023-01-13T14:36:50;145.25;;;56.22;;
38427;SDS011;24211;49.980;19.776;2023-01-13T14:39:24;100.93;;;39.63;;
38427;SDS011;24211;49.980;19.776;2023-01-13T14:42:10;66.35;;;27.88;;
38427;SDS011;24211;49.980;19.776;2023-01-13T14:44:42;42.85;;;19.15;;
38427;SDS011;24211;49.980;19.776;2023-01-13T14:49:50;24.27;;;9.90;;
38427;SDS011;24211;49.980;19.776;2023-01-13T14:52:31;18.70;;;7.82;;
38427;SDS011;24211;49.980;19.776;2023-01-13T14:57:37;9.48;;;4.30;;
38427;SDS011;24211;49.980;19.776;2023-01-13T15:08:16;16.65;;;8.35;;
38427;SDS011;24211;49.980;19.776;2023-01-13T15:11:00;21.65;;;10.48;;
38427;SDS011;24211;49.980;19.776;2023-01-13T15:13:38;26.90;;;11.52;;
38427;SDS011;24211;49.980;19.776;2023-01-13T15:16:25;23.85;;;11.88;;
38427;SDS011;24211;49.980;19.776;2023-01-13T15:18:55;20.70;;;10.70;;
38427;SDS011;24211;49.980;19.776;2023-01-13T15:21:23;18.65;;;9.52;;
38427;SDS011;24211;49.980;19.776;2023-01-13T15:23:50;16.20;;;8.70;;
38427;SDS011;24211;49.980;19.776;2023-01-13T15:26:20;13.48;;;7.22;;
38427;SDS011;24211;49.980;19.776;2023-01-13T15:28:50;14.07;;;6.68;;
38427;SDS011;24211;49.980;19.776;2023-01-13T15:31:21;13.07;;;6.03;;
38427;SDS011;24211;49.980;19.776;2023-01-13T15:33:50;11.70;;;5.30;;
38427;SDS011;24211;49.980;19.776;2023-01-13T15:36:27;12.50;;;5.80;;
38427;SDS011;24211;49.980;19.776;2023-01-13T15:38:58;11.13;;;4.93;;
38427;SDS011;24211;49.980;19.776;2023-01-13T15:41:27;10.73;;;4.68;;
38427;SDS011;24211;49.980;19.776;2023-01-13T15:44:13;10.05;;;4.10;;
38427;SDS011;24211;49.980;19.776;2023-01-13T15:47:02;8.05;;;3.95;;
38427;SDS011;24211;49.980;19.776;2023-01-13T15:49:41;9.38;;;3.95;;
38427;SDS011;24211;49.980;19.776;2023-01-13T15:52:15;6.50;;;2.97;;
38427;SDS011;24211;49.980;19.776;2023-01-13T15:54:49;9.13;;;3.30;;
38427;SDS011;24211;49.980;19.776;2023-01-13T15:57:25;9.15;;;3.45;;
38427;SDS011;24211;49.980;19.776;2023-01-13T15:59:57;8.57;;;3.67;;
38427;SDS011;24211;49.980;19.776;2023-01-13T16:02:32;8.55;;;3.03;;
38427;SDS011;24211;49.980;19.776;2023-01-13T16:05:00;56.67;;;20.58;;
38427;SDS011;24211;49.980;19.776;2023-01-13T16:07:27;88.70;;;28.23;;
38427;SDS011;24211;49.980;19.776;2023-01-13T16:09:54;109.22;;;37.85;;
38427;SDS011;24211;49.980;19.776;2023-01-13T16:12:21;80.13;;;28.23;;
38427;SDS011;24211;49.980;19.776;2023-01-13T16:14:48;62.92;;;22.35;;
38427;SDS011;24211;49.980;19.776;2023-01-13T16:17:21;45.15;;;15.95;;
38427;SDS011;24211;49.980;19.776;2023-01-13T16:19:52;28.67;;;11.45;;
38427;SDS011;24211;49.980;19.776;2023-01-13T16:22:20;24.90;;;9.48;;
38427;SDS011;24211;49.980;19.776;2023-01-13T16:24:48;20.30;;;7.60;;
38427;SDS011;24211;49.980;19.776;2023-01-13T16:27:16;18.13;;;7.40;;
38427;SDS011;24211;49.980;19.776;2023-01-13T16:29:48;13.82;;;5.25;;
38427;SDS011;24211;49.980;19.776;2023-01-13T16:32:17;11.98;;;4.68;;
38427;SDS011;24211;49.980;19.776;2023-01-13T16:34:48;9.77;;;3.97;;
38427;SDS011;24211;49.980;19.776;2023-01-13T16:37:19;10.88;;;3.78;;
38427;SDS011;24211;49.980;19.776;2023-01-13T16:39:51;10.32;;;4.03;;
38427;SDS011;24211;49.980;19.776;2023-01-13T16:42:20;11.55;;;3.85;;
38427;SDS011;24211;49.980;19.776;2023-01-13T16:44:47;9.55;;;3.55;;
38427;SDS011;24211;49.980;19.776;2023-01-13T16:47:16;7.65;;;3.78;;
38427;SDS011;24211;49.980;19.776;2023-01-13T16:49:44;10.95;;;4.70;;
38427;SDS011;24211;49.980;19.776;2023-01-13T16:52:12;10.65;;;5.18;;
38427;SDS011;24211;49.980;19.776;2023-01-13T16:54:40;9.70;;;4.60;;
38427;SDS011;24211;49.980;19.776;2023-01-13T16:57:10;9.07;;;4.50;;
38427;SDS011;24211;49.980;19.776;2023-01-13T16:59:38;8.77;;;4.47;;
38427;SDS011;24211;49.980;19.776;2023-01-13T17:02:10;10.60;;;4.65;;
38427;SDS011;24211;49.980;19.776;2023-01-13T17:04:41;10.20;;;4.60;;
38427;SDS011;24211;49.980;19.776;2023-01-13T17:07:10;8.65;;;4.20;;
38427;SDS011;24211;49.980;19.776;2023-01-13T17:09:42;9.07;;;4.63;;
38427;SDS011;24211;49.980;19.776;2023-01-13T17:12:10;8.35;;;4.05;;
38427;SDS011;24211;49.980;19.776;2023-01-13T17:14:37;9.63;;;4.68;;
38427;SDS011;24211;49.980;19.776;2023-01-13T17:17:04;10.57;;;4.50;;
38427;SDS011;24211;49.980;19.776;2023-01-13T17:19:31;7.53;;;3.75;;
38427;SDS011;24211;49.980;19.776;2023-01-13T17:21:58;9.95;;;4.60;;
38427;SDS011;24211;49.980;19.776;2023-01-13T17:24:26;10.75;;;4.50;;
38427;SDS011;24211;49.980;19.776;2023-01-13T17:26:56;11.40;;;4.57;;
38427;SDS011;24211;49.980;19.776;2023-01-13T17:29:24;7.57;;;3.90;;